Time;durP1;ratioP1;P1;durP2;ratioP2;P2;SDS_P1;SDS_P2;PMS_P1;PMS_P2;Temp;Humidity;BMP_temperature;BMP_pressure;BME280_temperature;BME280_humidity;BME280_pressure;Samples;Min_cycle;Max_cycle;Signal;HPM_P1;HPM_P2
2022/12/23 00:00:11;;;;;;;123.38;40.28;;;6.80;98.60;;;;;;5074770;28;20044;-76
2022/12/23 00:02:37;;;;;;;167.27;48.42;;;6.80;98.60;;;;;;5074979;28;20044;-76
2022/12/23 00:05:04;;;;;;;147.82;45.42;;;6.80;98.60;;;;;;5074804;28;20043;-78
2022/12/23 00:07:30;;;;;;;156.48;47.45;;;6.80;98.60;;;;;;5074568;28;20496;-78
2022/12/23 00:09:56;;;;;;;133.50;42.95;;;6.80;98.60;;;;;;5074603;28;20500;-79
2022/12/23 00:15:06;;;;;;;122.43;44.50;;;6.70;98.60;;;;;;5060110;28;20094;-75
2022/12/23 00:17:43;;;;;;;151.00;50.33;;;6.70;98.60;;;;;;5074491;28;20054;-78
2022/12/23 00:20:11;;;;;;;210.02;55.38;;;6.70;98.60;;;;;;5058010;28;20045;-77
2022/12/23 00:25:39;;;;;;;164.98;49.28;;;6.80;98.70;;;;;;5074853;28;20109;-76
2022/12/23 00:28:25;;;;;;;131.60;45.00;;;6.70;98.70;;;;;;5059970;28;20044;-77
2022/12/23 00:30:59;;;;;;;245.23;59.90;;;6.70;98.70;;;;;;5057411;28;20047;-77
2022/12/23 00:33:28;;;;;;;191.82;54.70;;;6.80;98.70;;;;;;5074433;28;20431;-77
2022/12/23 00:35:54;;;;;;;207.13;53.20;;;6.80;98.70;;;;;;5074206;28;20489;-79
2022/12/23 00:42:52;;;;;;;133.82;43.80;;;6.80;98.70;;;;;;5074137;28;20041;-78
2022/12/23 00:44:01;;;;;;;147.27;48.13;;;6.80;98.70;;;;;;5074269;28;20047;-77
2022/12/23 00:46:26;;;;;;;144.55;44.00;;;6.80;98.70;;;;;;5057299;28;20041;-76
2022/12/23 00:51:44;;;;;;;279.23;62.13;;;6.80;98.70;;;;;;5052935;28;20076;-75
2022/12/23 00:54:10;;;;;;;201.52;54.13;;;6.80;98.70;;;;;;5057497;28;20091;-76
2022/12/23 00:56:36;;;;;;;157.90;49.47;;;6.80;98.80;;;;;;5073591;28;20540;-77
2022/12/23 00:59:01;;;;;;;238.18;60.85;;;6.80;98.80;;;;;;5040072;28;20040;-78
2022/12/23 01:07:00;;;;;;;156.98;52.25;;;6.80;98.80;;;;;;5073540;28;20400;-75
2022/12/23 01:09:26;;;;;;;169.30;51.85;;;6.80;98.80;;;;;;5056763;28;20051;-76
2022/12/23 01:11:52;;;;;;;154.15;48.20;;;6.80;98.80;;;;;;5056699;28;20056;-78
2022/12/23 01:14:19;;;;;;;194.70;53.80;;;6.80;98.90;;;;;;5073619;28;20102;-77
2022/12/23 01:16:45;;;;;;;200.82;52.15;;;6.80;98.80;;;;;;5056723;28;20044;-77
2022/12/23 01:19:12;;;;;;;162.85;51.22;;;6.80;98.80;;;;;;5056870;28;20056;-79
2022/12/23 01:21:38;;;;;;;321.35;68.97;;;6.80;98.80;;;;;;5073336;28;20615;-77
2022/12/23 01:24:04;;;;;;;322.50;66.47;;;6.80;98.80;;;;;;5073261;28;20043;-76
2022/12/23 01:26:29;;;;;;;215.18;56.58;;;6.80;98.70;;;;;;5056457;28;20037;-77
2022/12/23 01:28:56;;;;;;;183.00;52.13;;;6.80;98.80;;;;;;5056506;28;20036;-77
2022/12/23 01:31:23;;;;;;;176.95;50.67;;;6.80;98.70;;;;;;5040047;28;20052;-78
2022/12/23 01:33:50;;;;;;;239.63;57.17;;;6.80;98.70;;;;;;5056535;28;20044;-76
2022/12/23 01:36:15;;;;;;;239.77;58.88;;;6.90;98.80;;;;;;5056325;28;20040;-76
2022/12/23 01:38:41;;;;;;;201.52;54.85;;;6.80;98.70;;;;;;5072828;28;20044;-76
2022/12/23 01:41:07;;;;;;;142.52;45.17;;;6.80;98.70;;;;;;5072772;28;20062;-77
2022/12/23 01:44:02;;;;;;;215.15;52.78;;;6.80;98.70;;;;;;5056397;28;20046;-77
2022/12/23 01:46:28;;;;;;;;;;;6.80;98.70;;;;;;5052009;28;20064;-77
2022/12/23 01:48:54;;;;;;;219.38;53.63;;;6.70;98.70;;;;;;5072841;28;19916;-76
2022/12/23 01:51:26;;;;;;;224.70;54.10;;;6.70;98.70;;;;;;5073007;28;20045;-76
2022/12/23 01:53:57;;;;;;;206.65;54.88;;;6.70;98.70;;;;;;5072804;28;20040;-76
2022/12/23 01:56:38;;;;;;;192.05;49.30;;;6.80;98.70;;;;;;5073066;28;20056;-81
2022/12/23 02:04:43;;;;;;;;;;;6.70;98.70;;;;;;5073213;28;20047;-76
2022/12/23 02:09:54;;;;;;;165.55;43.20;;;6.70;98.80;;;;;;5072680;28;20495;-76
2022/12/23 02:12:45;;;;;;;153.70;45.55;;;6.70;98.80;;;;;;5055608;28;20060;-77
2022/12/23 02:18:31;;;;;;;133.98;40.33;;;6.70;98.80;;;;;;5072326;28;20081;-76
2022/12/23 02:21:21;;;;;;;158.00;44.33;;;6.70;98.90;;;;;;5072563;28;20055;-78
2022/12/23 02:24:21;;;;;;;157.13;41.83;;;6.80;98.90;;;;;;5071571;28;20127;-77
2022/12/23 02:26:52;;;;;;;139.98;40.20;;;6.70;98.90;;;;;;5053871;28;20044;-76
2022/12/23 02:29:40;;;;;;;124.20;36.60;;;6.70;98.90;;;;;;5054785;28;20128;-77
2022/12/23 02:32:31;;;;;;;116.47;35.00;;;6.70;98.90;;;;;;5071538;28;20040;-77
2022/12/23 02:35:28;;;;;;;135.43;36.60;;;6.70;98.90;;;;;;5071710;28;20123;-77
2022/12/23 02:38:03;;;;;;;135.15;39.05;;;6.70;98.80;;;;;;5054794;28;20123;-77
2022/12/23 02:40:44;;;;;;;145.50;39.90;;;6.70;98.90;;;;;;5071548;28;20552;-77
2022/12/23 02:43:33;;;;;;;116.70;34.20;;;6.70;98.80;;;;;;5071548;28;20089;-77
2022/12/23 02:46:31;;;;;;;98.13;33.28;;;6.70;98.80;;;;;;5071568;28;20037;-77
2022/12/23 02:49:03;;;;;;;116.57;32.78;;;6.70;98.80;;;;;;5055105;28;20114;-77
2022/12/23 02:51:36;;;;;;;132.65;37.85;;;6.70;98.80;;;;;;5071485;28;20055;-77
2022/12/23 02:54:06;;;;;;;129.77;37.25;;;6.70;98.80;;;;;;5054836;28;20052;-75
2022/12/23 02:56:37;;;;;;;125.85;39.80;;;6.70;98.80;;;;;;5071778;28;20113;-76
2022/12/23 02:59:14;;;;;;;121.47;36.38;;;6.70;98.80;;;;;;5071327;28;20044;-77
2022/12/23 03:01:41;;;;;;;135.55;39.58;;;6.60;98.80;;;;;;5071384;28;20047;-77
2022/12/23 03:04:07;;;;;;;172.05;45.47;;;6.60;98.80;;;;;;5054720;28;20072;-77
2022/12/23 03:06:42;;;;;;;136.00;41.15;;;6.60;98.80;;;;;;5054657;28;20044;-76
2022/12/23 03:09:10;;;;;;;132.55;39.88;;;6.60;98.90;;;;;;5071551;28;20045;-79
2022/12/23 03:12:00;;;;;;;160.75;44.53;;;6.60;98.80;;;;;;5054576;28;20135;-76
2022/12/23 03:14:59;;;;;;;169.60;45.53;;;6.60;98.80;;;;;;5071286;28;20052;-76
2022/12/23 03:17:56;;;;;;;150.38;46.00;;;6.60;98.80;;;;;;5071336;28;20041;-77
2022/12/23 03:20:42;;;;;;;141.75;44.58;;;6.50;98.80;;;;;;5071265;28;20388;-76
2022/12/23 03:23:29;;;;;;;179.93;48.22;;;6.50;98.80;;;;;;5071100;28;20041;-77
2022/12/23 03:25:55;;;;;;;174.15;45.17;;;6.50;98.80;;;;;;5054511;28;20066;-79
2022/12/23 03:28:32;;;;;;;168.13;46.20;;;6.50;98.90;;;;;;5071101;28;20041;-77
2022/12/23 03:31:00;;;;;;;172.52;46.30;;;6.50;98.80;;;;;;5071249;28;20037;-75
2022/12/23 03:33:38;;;;;;;185.07;47.83;;;6.50;98.90;;;;;;5054357;28;20044;-78
2022/12/23 03:36:23;;;;;;;165.75;46.30;;;6.50;98.90;;;;;;5071071;28;20075;-76
2022/12/23 03:38:52;;;;;;;160.13;45.42;;;6.50;98.90;;;;;;5070988;28;20052;-77
2022/12/23 03:41:26;;;;;;;164.35;44.88;;;6.50;98.90;;;;;;5054326;28;20048;-77
2022/12/23 03:43:56;;;;;;;155.60;41.70;;;6.50;98.90;;;;;;5070980;28;20039;-77
2022/12/23 03:46:45;;;;;;;152.32;40.95;;;6.50;98.90;;;;;;5071246;28;20428;-76
2022/12/23 03:49:23;;;;;;;149.93;40.85;;;6.50;98.90;;;;;;5071611;28;20048;-78
2022/12/23 03:51:54;;;;;;;146.63;40.05;;;6.50;98.90;;;;;;5074702;28;20053;-78
2022/12/23 03:54:26;;;;;;;131.90;36.80;;;6.50;98.90;;;;;;5074415;28;20049;-77
2022/12/23 03:57:02;;;;;;;183.65;42.85;;;6.50;98.90;;;;;;5074754;28;20443;-76
2022/12/23 03:59:33;;;;;;;238.20;46.92;;;6.50;98.90;;;;;;5074348;28;20044;-78
2022/12/23 04:02:23;;;;;;;203.48;41.72;;;6.40;98.90;;;;;;5074492;28;20366;-77
2022/12/23 04:05:13;;;;;;;344.33;56.83;;;6.40;98.90;;;;;;5057681;28;20051;-76
2022/12/23 04:07:48;;;;;;;401.83;57.03;;;6.40;98.90;;;;;;5074212;28;20044;-75
2022/12/23 04:10:15;;;;;;;486.35;59.75;;;6.40;98.90;;;;;;5074222;28;20051;-78
2022/12/23 04:12:41;;;;;;;405.00;55.05;;;6.30;98.90;;;;;;5074065;28;20048;-77
2022/12/23 04:15:07;;;;;;;466.25;60.55;;;6.40;99.00;;;;;;5057663;28;20388;-76
2022/12/23 04:17:32;;;;;;;328.67;48.50;;;6.30;99.00;;;;;;5074071;28;20045;-77
2022/12/23 04:19:58;;;;;;;272.73;43.35;;;6.30;99.00;;;;;;5057273;28;20172;-77
2022/12/23 04:22:24;;;;;;;271.50;44.10;;;6.30;99.00;;;;;;5073785;28;20124;-78
2022/12/23 04:24:49;;;;;;;369.75;51.45;;;6.30;99.00;;;;;;5074105;28;20094;-77
2022/12/23 04:27:16;;;;;;;399.35;57.08;;;6.30;99.00;;;;;;5074111;28;20043;-77
2022/12/23 04:29:42;;;;;;;302.73;47.63;;;6.30;99.00;;;;;;5073884;28;20040;-77
2022/12/23 04:32:08;;;;;;;253.40;43.08;;;6.30;99.10;;;;;;5057041;28;20098;-76
2022/12/23 04:34:34;;;;;;;340.90;51.08;;;6.30;99.10;;;;;;5057056;28;20036;-76
2022/12/23 04:37:00;;;;;;;370.92;53.85;;;6.30;99.10;;;;;;5073897;28;20098;-76
2022/12/23 04:39:26;;;;;;;372.20;52.22;;;6.30;99.00;;;;;;5073576;28;20040;-77
2022/12/23 04:41:51;;;;;;;301.52;43.80;;;6.30;99.10;;;;;;5057115;28;20041;-75
2022/12/23 04:44:17;;;;;;;339.60;46.22;;;6.30;99.10;;;;;;5073525;28;20041;-77
2022/12/23 04:46:44;;;;;;;505.55;59.42;;;6.30;99.00;;;;;;5073787;28;20032;-75
2022/12/23 04:49:09;;;;;;;275.15;42.65;;;6.20;99.10;;;;;;5073395;28;20056;-76
2022/12/23 04:51:35;;;;;;;377.83;47.75;;;6.20;99.10;;;;;;5056639;28;20040;-79
2022/12/23 04:54:01;;;;;;;431.52;51.97;;;6.20;99.10;;;;;;5056628;28;20043;-79
2022/12/23 04:56:26;;;;;;;550.60;62.63;;;6.20;99.10;;;;;;5040082;28;20071;-79
2022/12/23 04:58:52;;;;;;;351.45;42.80;;;6.20;99.10;;;;;;5073385;28;20052;-77
2022/12/23 05:01:18;;;;;;;472.38;52.17;;;6.20;99.10;;;;;;5072320;28;20037;-75
2022/12/23 05:03:43;;;;;;;524.75;58.85;;;6.20;99.20;;;;;;5073362;28;20392;-76
2022/12/23 05:06:09;;;;;;;280.98;37.45;;;6.10;99.10;;;;;;5073331;28;20043;-76
2022/12/23 05:08:35;;;;;;;437.67;49.40;;;6.10;99.20;;;;;;5073071;28;20071;-76
2022/12/23 05:11:01;;;;;;;424.10;49.05;;;6.10;99.20;;;;;;5056520;28;20412;-77
2022/12/23 05:13:26;;;;;;;389.17;48.00;;;6.10;99.10;;;;;;5072885;28;20127;-76
2022/12/23 05:15:53;;;;;;;388.67;47.25;;;6.10;99.10;;;;;;5056570;28;20036;-76
2022/12/23 05:18:20;;;;;;;322.55;42.22;;;6.10;99.20;;;;;;5073026;28;20403;-78
2022/12/23 05:20:47;;;;;;;361.60;43.55;;;6.10;99.20;;;;;;5072968;28;20044;-76
2022/12/23 05:23:12;;;;;;;250.90;38.30;;;6.10;99.20;;;;;;5072688;28;20039;-77
2022/12/23 05:25:39;;;;;;;260.65;38.95;;;6.10;99.20;;;;;;5056045;28;20040;-75
2022/12/23 05:28:06;;;;;;;272.00;36.90;;;6.00;99.20;;;;;;5072665;28;20036;-77
2022/12/23 05:30:32;;;;;;;278.90;37.90;;;6.00;99.20;;;;;;5072605;28;20059;-78
2022/12/23 05:32:58;;;;;;;317.42;39.78;;;6.00;99.20;;;;;;5072483;28;20508;-76
2022/12/23 05:35:25;;;;;;;172.10;30.13;;;6.00;99.20;;;;;;5072676;28;20041;-76
2022/12/23 05:37:51;;;;;;;132.18;23.85;;;6.00;99.20;;;;;;5072470;28;20303;-77
2022/12/23 05:40:18;;;;;;;202.20;31.85;;;6.00;99.20;;;;;;5055719;28;20093;-76
2022/12/23 05:42:44;;;;;;;82.55;22.42;;;5.90;99.20;;;;;;5072570;28;20396;-76
2022/12/23 05:45:10;;;;;;;149.35;28.23;;;5.90;99.30;;;;;;5055998;28;20115;-76
2022/12/23 05:47:36;;;;;;;167.73;30.33;;;5.90;99.30;;;;;;5072267;28;20098;-75
2022/12/23 05:50:02;;;;;;;116.72;25.58;;;5.90;99.30;;;;;;5072193;28;20044;-77
2022/12/23 05:52:28;;;;;;;88.18;23.77;;;5.90;99.30;;;;;;5072194;28;20041;-76
2022/12/23 05:54:53;;;;;;;69.97;21.45;;;5.80;99.30;;;;;;5072526;28;20043;-76
2022/12/23 05:57:19;;;;;;;87.28;23.83;;;5.90;99.30;;;;;;5072129;28;20044;-77
2022/12/23 05:59:45;;;;;;;73.70;22.25;;;5.90;99.30;;;;;;5055420;28;20037;-76
2022/12/23 06:02:11;;;;;;;65.18;20.40;;;5.80;99.30;;;;;;5072070;28;20066;-76
2022/12/23 06:04:36;;;;;;;69.60;21.38;;;5.80;99.20;;;;;;5072245;28;20128;-77
2022/12/23 06:07:02;;;;;;;72.30;23.00;;;5.80;99.20;;;;;;5055590;28;20036;-75
2022/12/23 06:09:28;;;;;;;68.63;20.90;;;5.80;99.20;;;;;;5071962;28;20075;-76
2022/12/23 06:11:53;;;;;;;74.75;22.15;;;5.80;99.30;;;;;;5054673;28;20056;-76
2022/12/23 06:14:19;;;;;;;56.97;19.48;;;5.80;99.30;;;;;;5071879;28;20048;-77
2022/12/23 06:16:45;;;;;;;86.60;21.70;;;5.80;99.30;;;;;;5071849;28;20086;-76
2022/12/23 06:19:10;;;;;;;79.32;22.00;;;5.80;99.30;;;;;;5071763;28;20037;-79
2022/12/23 06:21:36;;;;;;;58.58;19.33;;;5.80;99.30;;;;;;5071687;28;20044;-77
2022/12/23 06:24:02;;;;;;;72.20;20.20;;;5.80;99.30;;;;;;5071773;28;20499;-77
2022/12/23 06:26:27;;;;;;;87.03;22.88;;;5.80;99.30;;;;;;5071783;28;20040;-80
2022/12/23 06:28:53;;;;;;;67.90;20.50;;;5.80;99.30;;;;;;5050406;28;20047;-75
2022/12/23 06:31:19;;;;;;;79.25;23.15;;;5.80;99.30;;;;;;5061936;28;20098;-76
2022/12/23 06:33:45;;;;;;;62.10;20.70;;;5.80;99.40;;;;;;5043364;28;20485;-76
2022/12/23 06:36:10;;;;;;;57.30;19.10;;;5.80;99.40;;;;;;5062292;28;20123;-76
2022/12/23 06:38:36;;;;;;;86.70;22.77;;;5.80;99.40;;;;;;5062284;28;20450;-76
2022/12/23 06:41:02;;;;;;;70.28;20.95;;;5.80;99.40;;;;;;5062246;28;20095;-75
2022/12/23 06:43:27;;;;;;;81.30;22.42;;;5.80;99.40;;;;;;5059960;28;20507;-75
2022/12/23 06:45:53;;;;;;;64.50;20.98;;;5.80;99.30;;;;;;5045006;28;20044;-76
2022/12/23 06:48:19;;;;;;;67.07;21.10;;;5.80;99.40;;;;;;5045178;28;20114;-78
2022/12/23 06:50:45;;;;;;;63.30;19.38;;;5.80;99.40;;;;;;5043638;28;20476;-77
2022/12/23 06:53:11;;;;;;;57.70;20.23;;;5.80;99.30;;;;;;5062042;28;20108;-76
2022/12/23 06:55:37;;;;;;;66.05;20.85;;;5.80;99.40;;;;;;5061102;28;20044;-75
2022/12/23 06:58:03;;;;;;;64.50;20.20;;;5.90;99.30;;;;;;5060505;28;20121;-77
2022/12/23 07:00:29;;;;;;;60.45;20.90;;;5.80;99.30;;;;;;5059914;28;20037;-75
2022/12/23 07:02:55;;;;;;;72.57;21.80;;;5.80;99.40;;;;;;5044414;28;20097;-74
2022/12/23 07:05:21;;;;;;;75.57;23.05;;;5.80;99.40;;;;;;5061816;28;20040;-76
2022/12/23 07:07:46;;;;;;;56.72;19.80;;;5.80;99.40;;;;;;5062249;28;20401;-76
2022/12/23 07:10:12;;;;;;;60.10;19.45;;;5.80;99.40;;;;;;5060634;28;20083;-77
2022/12/23 07:12:38;;;;;;;71.32;22.05;;;5.80;99.40;;;;;;5060555;28;20561;-77
2022/12/23 07:15:05;;;;;;;49.90;18.88;;;5.90;99.40;;;;;;5070427;28;20052;-77
2022/12/23 07:17:31;;;;;;;52.88;17.60;;;5.90;99.30;;;;;;5054510;28;20044;-77
2022/12/23 07:19:57;;;;;;;66.53;20.17;;;5.90;99.30;;;;;;5054531;28;20036;-75
2022/12/23 07:22:22;;;;;;;61.22;21.02;;;5.80;99.30;;;;;;5071166;28;20076;-77
2022/12/23 07:24:48;;;;;;;65.53;21.25;;;5.90;99.40;;;;;;5056726;28;20067;-77
2022/12/23 07:27:14;;;;;;;60.45;20.30;;;5.90;99.40;;;;;;5074898;28;20397;-77
2022/12/23 07:29:39;;;;;;;87.47;24.60;;;5.80;99.40;;;;;;5075199;28;20041;-76
2022/12/23 07:32:05;;;;;;;71.97;21.48;;;5.90;99.40;;;;;;5058156;28;20111;-76
2022/12/23 07:34:31;;;;;;;81.22;25.15;;;5.80;99.40;;;;;;5058053;28;20124;-77
2022/12/23 07:36:56;;;;;;;68.88;21.15;;;5.90;99.40;;;;;;5074880;28;20063;-76
2022/12/23 07:39:22;;;;;;;77.60;23.50;;;5.90;99.30;;;;;;5058007;28;20048;-76
2022/12/23 07:41:48;;;;;;;77.18;24.33;;;5.90;99.30;;;;;;5040581;28;20082;-76
2022/12/23 07:44:13;;;;;;;68.38;21.98;;;5.90;99.40;;;;;;5038056;28;20091;-78
2022/12/23 07:46:39;;;;;;;83.75;24.13;;;5.90;99.40;;;;;;5054789;28;20051;-77
2022/12/23 07:49:05;;;;;;;70.75;23.23;;;5.90;99.50;;;;;;5054508;28;20075;-78
2022/12/23 07:51:31;;;;;;;86.40;25.55;;;5.90;99.40;;;;;;5054744;28;20044;-76
2022/12/23 07:53:57;;;;;;;73.55;23.98;;;6.00;99.40;;;;;;5037927;28;20051;-76
2022/12/23 07:56:22;;;;;;;71.10;24.40;;;6.00;99.40;;;;;;5040277;28;20036;-75
2022/12/23 07:58:52;;;;;;;61.22;21.63;;;6.00;99.40;;;;;;5069605;28;20040;-76
2022/12/23 08:01:19;;;;;;;66.47;21.40;;;5.90;99.40;;;;;;5073935;28;20041;-76
2022/12/23 08:03:45;;;;;;;75.57;24.30;;;5.90;99.40;;;;;;5074284;28;20042;-76
2022/12/23 08:06:12;;;;;;;65.10;20.75;;;6.00;99.40;;;;;;5057661;28;20044;-75
2022/12/23 08:08:39;;;;;;;63.50;21.45;;;6.00;99.50;;;;;;5074265;28;20045;-76
2022/12/23 08:11:07;;;;;;;65.93;20.92;;;6.00;99.50;;;;;;5074262;28;20384;-77
2022/12/23 08:13:35;;;;;;;82.00;24.30;;;6.00;99.50;;;;;;5074365;28;20040;-79
2022/12/23 08:16:02;;;;;;;58.85;22.85;;;6.00;99.50;;;;;;5074076;28;20056;-77
2022/12/23 08:18:30;;;;;;;71.18;27.85;;;6.00;99.50;;;;;;5073975;28;20048;-76
2022/12/23 08:21:04;;;;;;;77.50;28.10;;;6.00;99.50;;;;;;5057327;28;20052;-78
2022/12/23 08:23:31;;;;;;;73.07;25.80;;;6.00;99.50;;;;;;5057064;28;20499;-77
2022/12/23 08:26:09;;;;;;;65.78;26.50;;;6.10;99.50;;;;;;5073916;28;20124;-80
2022/12/23 08:28:37;;;;;;;79.68;34.28;;;6.10;99.50;;;;;;5073948;28;20051;-77
2022/12/23 08:31:15;;;;;;;70.70;30.23;;;6.10;99.60;;;;;;5074148;28;20391;-75
2022/12/23 08:33:42;;;;;;;82.30;30.85;;;6.10;99.50;;;;;;5074049;28;20166;-77
2022/12/23 08:36:12;;;;;;;66.53;28.08;;;6.10;99.60;;;;;;5073539;28;20040;-75
2022/12/23 08:38:38;;;;;;;68.75;23.95;;;6.10;99.60;;;;;;5057258;28;20046;-78
2022/12/23 08:41:09;;;;;;;68.45;25.63;;;6.10;99.60;;;;;;5073869;28;20083;-78
2022/12/23 08:43:34;;;;;;;61.70;26.35;;;6.10;99.60;;;;;;5057184;28;20086;-77
2022/12/23 08:46:00;;;;;;;83.18;30.52;;;6.10;99.60;;;;;;5073558;28;20488;-77
2022/12/23 08:48:26;;;;;;;54.10;22.73;;;6.10;99.60;;;;;;5056880;28;20119;-78
2022/12/23 08:50:51;;;;;;;52.72;21.50;;;6.10;99.60;;;;;;5057074;28;20036;-77
2022/12/23 08:53:17;;;;;;;57.67;22.90;;;6.10;99.60;;;;;;5056654;28;20481;-77
2022/12/23 08:55:45;;;;;;;50.83;20.35;;;6.20;99.60;;;;;;5056684;28;20037;-77
2022/12/23 08:58:15;;;;;;;58.05;22.58;;;6.20;99.60;;;;;;5073255;28;20066;-79
2022/12/23 09:00:41;;;;;;;44.97;19.20;;;6.20;99.60;;;;;;5056487;28;20390;-76
2022/12/23 09:03:07;;;;;;;51.03;20.17;;;6.30;99.70;;;;;;5073160;28;20044;-77
2022/12/23 09:05:37;;;;;;;61.13;24.55;;;6.30;99.70;;;;;;5056507;28;20033;-78
2022/12/23 09:08:03;;;;;;;48.50;20.65;;;6.30;99.70;;;;;;5057592;28;20032;-77
2022/12/23 09:10:29;;;;;;;65.68;24.13;;;6.40;99.70;;;;;;5073061;28;20518;-76
2022/12/23 09:12:54;;;;;;;60.92;21.75;;;6.40;99.60;;;;;;5072783;28;20198;-77
2022/12/23 09:15:20;;;;;;;57.25;21.70;;;6.40;99.70;;;;;;5056589;28;20146;-76
2022/12/23 09:17:46;;;;;;;44.67;18.90;;;6.40;99.70;;;;;;5056614;28;20137;-79
2022/12/23 09:20:11;;;;;;;52.22;20.00;;;6.40;99.70;;;;;;5072851;28;20431;-77
2022/12/23 09:22:37;;;;;;;52.53;19.58;;;6.40;99.60;;;;;;5056438;28;20123;-77
2022/12/23 09:25:03;;;;;;;58.72;21.80;;;6.40;99.60;;;;;;5073216;28;20076;-77
2022/12/23 09:27:29;;;;;;;85.32;25.35;;;6.50;99.70;;;;;;5056712;28;20156;-75
2022/12/23 09:29:55;;;;;;;63.78;22.23;;;6.50;99.70;;;;;;5072692;28;20124;-76
2022/12/23 09:32:20;;;;;;;64.05;21.27;;;6.50;99.70;;;;;;5072918;28;20127;-75
2022/12/23 09:34:46;;;;;;;53.17;20.42;;;6.50;99.70;;;;;;5072632;28;20082;-76
2022/12/23 09:37:15;;;;;;;60.47;20.08;;;6.60;99.70;;;;;;5039516;28;20047;-76
2022/12/23 09:39:41;;;;;;;55.65;20.30;;;6.60;99.70;;;;;;5072493;28;20491;-78
2022/12/23 09:42:44;;;;;;;68.82;21.75;;;6.60;99.70;;;;;;5055976;28;20036;-77
2022/12/23 09:45:15;;;;;;;49.08;19.75;;;6.60;99.70;;;;;;5055333;28;20117;-77
2022/12/23 09:47:43;;;;;;;57.45;19.85;;;6.60;99.70;;;;;;5055057;28;20047;-75
2022/12/23 09:50:22;;;;;;;44.47;18.13;;;6.60;99.70;;;;;;5072338;28;20098;-75
2022/12/23 09:53:02;;;;;;;38.80;15.82;;;6.70;99.70;;;;;;5072361;28;20044;-76
2022/12/23 09:55:51;;;;;;;42.90;16.27;;;6.60;99.70;;;;;;5055709;28;20493;-76
2022/12/23 09:58:58;;;;;;;33.28;15.23;;;6.70;99.70;;;;;;5068738;28;20531;-75
2022/12/23 10:01:44;;;;;;;36.78;14.55;;;6.70;99.70;;;;;;5054393;28;20072;-75
2022/12/23 10:04:21;;;;;;;35.72;15.68;;;6.70;99.70;;;;;;5054677;28;20052;-76
2022/12/23 10:07:29;;;;;;;28.92;12.15;;;6.80;99.70;;;;;;5072087;28;20036;-77
2022/12/23 10:09:56;;;;;;;32.47;13.85;;;6.80;99.70;;;;;;5071833;28;20139;-77
2022/12/23 10:12:26;;;;;;;33.15;13.93;;;6.80;99.70;;;;;;5071734;28;20497;-74
2022/12/23 10:14:56;;;;;;;36.95;16.05;;;6.80;99.70;;;;;;5055522;28;20492;-78
2022/12/23 10:17:33;;;;;;;46.60;17.55;;;6.80;99.70;;;;;;5055166;28;20056;-75
2022/12/23 10:20:01;;;;;;;49.90;29.13;;;6.80;99.70;;;;;;5071548;28;20068;-77
2022/12/23 10:22:40;;;;;;;41.42;18.00;;;6.90;99.70;;;;;;5070821;28;20121;-75
2022/12/23 10:25:31;;;;;;;34.67;15.70;;;6.90;99.70;;;;;;5071726;28;20051;-76
2022/12/23 10:27:57;;;;;;;61.50;37.53;;;6.90;99.70;;;;;;5055051;28;20083;-75
2022/12/23 10:30:23;;;;;;;40.83;20.83;;;7.00;99.80;;;;;;5055373;28;20079;-78
2022/12/23 10:33:00;;;;;;;59.38;32.50;;;7.00;99.70;;;;;;5071960;28;20044;-76
2022/12/23 10:35:37;;;;;;;97.30;78.88;;;7.00;99.70;;;;;;5071675;28;20041;-76
2022/12/23 10:38:21;;;;;;;44.33;21.98;;;7.00;99.70;;;;;;5071720;28;20079;-75
2022/12/23 10:40:56;;;;;;;38.88;17.77;;;7.00;99.60;;;;;;5071587;28;20044;-75
2022/12/23 10:43:21;;;;;;;;;;;7.00;99.60;;;;;;5072092;28;20503;-77
2022/12/23 10:46:32;;;;;;;36.20;15.40;;;6.90;99.60;;;;;;5071847;28;19917;-76
2022/12/23 10:49:21;;;;;;;37.42;15.55;;;7.00;99.60;;;;;;5026781;28;20083;-77
2022/12/23 10:51:56;;;;;;;47.17;16.55;;;7.00;99.70;;;;;;5071788;28;20039;-78
2022/12/23 10:54:28;;;;;;;41.95;17.02;;;7.00;99.70;;;;;;5071459;28;20055;-77
2022/12/23 10:56:54;;;;;;;42.97;17.38;;;7.00;99.60;;;;;;5071463;28;20047;-76
2022/12/23 10:59:25;;;;;;;39.53;17.65;;;7.00;99.70;;;;;;5041545;28;20470;-78
2022/12/23 11:02:05;;;;;;;36.55;17.15;;;7.00;99.60;;;;;;5059057;28;20395;-76
2022/12/23 11:04:36;;;;;;;44.92;17.58;;;7.00;99.60;;;;;;5075717;28;20491;-77
2022/12/23 11:07:02;;;;;;;49.78;19.10;;;7.00;99.60;;;;;;5075404;28;20120;-76
2022/12/23 11:09:38;;;;;;;47.78;21.98;;;7.10;99.70;;;;;;5075455;28;20484;-77
2022/12/23 11:12:07;;;;;;;48.58;20.13;;;7.10;99.70;;;;;;5075011;28;20501;-76
2022/12/23 11:14:40;;;;;;;49.53;19.58;;;7.10;99.60;;;;;;5058862;28;20431;-78
2022/12/23 11:17:19;;;;;;;44.25;18.00;;;7.10;99.60;;;;;;5075257;28;20468;-76
2022/12/23 11:19:44;;;;;;;40.05;17.63;;;7.10;99.60;;;;;;5075285;28;20211;-75
2022/12/23 11:22:22;;;;;;;40.67;18.85;;;7.10;99.60;;;;;;5075062;28;20350;-75
2022/12/23 11:24:47;;;;;;;43.72;19.40;;;7.10;99.60;;;;;;5075108;28;20128;-77
2022/12/23 11:27:17;;;;;;;43.72;19.88;;;7.10;99.60;;;;;;5075063;28;20123;-77
2022/12/23 11:29:50;;;;;;;45.67;19.73;;;7.10;99.60;;;;;;5074920;28;20477;-77
2022/12/23 11:32:26;;;;;;;51.05;21.35;;;7.10;99.60;;;;;;5075141;28;20043;-75
2022/12/23 11:34:54;;;;;;;42.05;19.50;;;7.10;99.60;;;;;;5058494;28;20432;-76
2022/12/23 11:37:30;;;;;;;48.58;19.35;;;7.10;99.60;;;;;;5042136;28;20040;-78
2022/12/23 11:39:56;;;;;;;45.53;18.95;;;7.10;99.60;;;;;;5074767;28;20067;-77
2022/12/23 11:42:29;;;;;;;48.60;19.52;;;7.10;99.60;;;;;;5074633;28;20041;-76
2022/12/23 11:44:58;;;;;;;42.95;17.70;;;7.10;99.60;;;;;;5074737;28;20067;-76
2022/12/23 11:47:50;;;;;;;45.03;17.25;;;7.10;99.60;;;;;;5074928;28;20374;-79
2022/12/23 11:50:19;;;;;;;39.22;16.95;;;7.10;99.60;;;;;;5073530;28;20053;-78
2022/12/23 11:52:59;;;;;;;45.63;17.80;;;7.10;99.60;;;;;;5057758;28;20540;-77
2022/12/23 11:55:31;;;;;;;43.67;17.23;;;7.10;99.60;;;;;;5074539;28;20049;-76
2022/12/23 11:58:00;;;;;;;42.88;18.35;;;7.10;99.50;;;;;;5074756;28;20050;-77
2022/12/23 12:00:33;;;;;;;46.42;17.88;;;7.10;99.50;;;;;;5074355;28;20515;-75
2022/12/23 12:03:01;;;;;;;44.78;18.60;;;7.10;99.50;;;;;;5074274;28;20051;-77
2022/12/23 12:05:36;;;;;;;47.22;17.88;;;7.10;99.50;;;;;;5057872;28;20047;-77
2022/12/23 12:08:08;;;;;;;47.47;17.20;;;7.10;99.50;;;;;;5074323;28;20485;-76
2022/12/23 12:10:36;;;;;;;40.85;16.48;;;7.10;99.50;;;;;;5070340;28;20411;-77
2022/12/23 12:13:07;;;;;;;44.53;17.40;;;7.10;99.50;;;;;;5074075;28;20061;-77
2022/12/23 12:15:46;;;;;;;35.83;15.40;;;7.10;99.50;;;;;;5074140;28;20048;-77
2022/12/23 12:18:16;;;;;;;36.45;14.85;;;7.10;99.50;;;;;;5074104;28;20515;-77
2022/12/23 12:20:52;;;;;;;40.42;17.25;;;7.10;99.50;;;;;;5070099;28;20408;-75
2022/12/23 12:23:43;;;;;;;41.78;16.42;;;7.10;99.50;;;;;;5062771;28;20392;-75
2022/12/23 12:26:35;;;;;;;42.58;15.98;;;7.10;99.50;;;;;;5064131;28;20473;-76
2022/12/23 12:29:25;;;;;;;36.88;14.25;;;7.10;99.50;;;;;;5062307;28;20041;-76
2022/12/23 12:31:54;;;;;;;43.67;16.40;;;7.10;99.50;;;;;;5053872;28;20045;-77
2022/12/23 12:34:42;;;;;;;39.67;15.93;;;7.10;99.50;;;;;;5053974;28;20449;-76
2022/12/23 12:37:21;;;;;;;41.47;15.73;;;7.10;99.50;;;;;;5053773;28;20539;-76
2022/12/23 12:40:00;;;;;;;37.60;16.13;;;7.10;99.50;;;;;;5053675;28;20045;-77
2022/12/23 12:42:43;;;;;;;41.80;17.35;;;7.10;99.50;;;;;;5053681;28;20048;-75
2022/12/23 12:45:19;;;;;;;40.88;16.02;;;7.10;99.50;;;;;;5053655;28;20041;-76
2022/12/23 12:48:10;;;;;;;36.60;15.70;;;7.10;99.50;;;;;;5037023;28;20171;-76
2022/12/23 12:50:43;;;;;;;32.42;14.90;;;7.10;99.50;;;;;;5036900;28;20106;-77
2022/12/23 12:53:17;;;;;;;37.67;16.23;;;7.10;99.50;;;;;;5053397;28;20504;-75
2022/12/23 12:55:56;;;;;;;39.15;14.82;;;7.10;99.40;;;;;;5053405;28;20047;-77
2022/12/23 12:58:23;;;;;;;36.10;15.98;;;7.10;99.50;;;;;;5053367;28;20076;-75
2022/12/23 13:01:26;;;;;;;41.22;16.85;;;7.20;99.50;;;;;;5036594;28;20060;-76
2022/12/23 13:04:01;;;;;;;34.35;14.80;;;7.10;99.40;;;;;;5053174;28;20037;-76
2022/12/23 13:07:05;;;;;;;35.03;15.95;;;7.10;99.40;;;;;;5053270;28;20120;-76
2022/12/23 13:09:54;;;;;;;30.95;14.90;;;7.10;99.40;;;;;;5044370;28;20095;-75
2022/12/23 13:12:38;;;;;;;41.85;18.98;;;7.10;99.50;;;;;;5053059;28;20527;-76
2022/12/23 13:15:37;;;;;;;38.75;16.40;;;7.10;99.50;;;;;;5053336;28;20493;-75
2022/12/23 13:18:40;;;;;;;40.70;16.17;;;7.20;99.50;;;;;;5055781;28;20153;-76
2022/12/23 13:21:15;;;;;;;36.95;15.63;;;7.20;99.50;;;;;;5071692;28;20052;-76
2022/12/23 13:23:45;;;;;;;34.85;15.20;;;7.20;99.50;;;;;;5072653;28;20037;-76